createdAt,value
2018-07-19T00:01:35.166Z,74.80
2018-07-19T00:04:04.260Z,76.10
2018-07-19T00:06:33.351Z,79.70
2018-07-19T00:09:02.459Z,80.40
2018-07-19T00:11:31.543Z,83.80
2018-07-19T00:14:00.625Z,85.20
2018-07-19T00:16:29.779Z,87.00
2018-07-19T00:18:58.981Z,89.40
2018-07-19T00:21:28.113Z,89.90
2018-07-19T00:23:57.272Z,90.80
2018-07-19T00:26:26.413Z,91.10
2018-07-19T00:28:55.605Z,91.70
2018-07-19T00:31:24.766Z,93.70
2018-07-19T00:33:53.960Z,94.10
2018-07-19T00:36:23.117Z,95.60
2018-07-19T00:38:52.334Z,95.50
2018-07-19T00:41:21.709Z,95.70
2018-07-19T00:43:50.882Z,95.80
2018-07-19T00:46:20.021Z,96.80
2018-07-19T00:48:49.182Z,97.20
2018-07-19T00:51:18.340Z,97.90
2018-07-19T00:53:47.517Z,98.30
2018-07-19T00:56:16.674Z,99.00
2018-07-19T00:58:45.857Z,99.10
2018-07-19T01:01:14.996Z,99.40
2018-07-19T01:03:44.170Z,99.80
2018-07-19T01:06:13.324Z,99.90
2018-07-19T01:08:42.492Z,99.90
2018-07-19T01:11:11.632Z,99.90
2018-07-19T01:13:40.827Z,99.90
2018-07-19T01:16:10.006Z,99.90
2018-07-19T01:18:39.139Z,99.90
2018-07-19T01:21:08.399Z,99.90
2018-07-19T01:23:37.525Z,99.90
2018-07-19T01:26:06.726Z,99.90
2018-07-19T01:28:35.895Z,99.90
2018-07-19T01:31:05.094Z,99.90
2018-07-19T01:33:34.233Z,99.90
2018-07-19T01:36:03.410Z,99.90
2018-07-19T01:38:32.542Z,99.90
2018-07-19T01:42:09.514Z,99.90
2018-07-19T01:44:38.672Z,99.90
2018-07-19T01:47:07.800Z,99.90
2018-07-19T01:49:36.966Z,99.90
2018-07-19T01:52:06.406Z,99.90
2018-07-19T01:54:35.549Z,99.90
2018-07-19T01:57:04.737Z,99.90
2018-07-19T01:59:33.932Z,99.90
2018-07-19T02:04:31.846Z,99.90
2018-07-19T02:07:01.015Z,99.90
2018-07-19T02:09:30.237Z,99.90
2018-07-19T02:11:59.562Z,99.90
2018-07-19T02:14:28.692Z,99.90
2018-07-19T02:16:57.913Z,99.90
2018-07-19T02:19:27.042Z,99.90
2018-07-19T02:21:56.249Z,99.90
2018-07-19T02:24:25.405Z,99.90
2018-07-19T02:26:54.555Z,99.90
2018-07-19T02:29:23.942Z,99.90
2018-07-19T02:31:53.142Z,99.90
2018-07-19T02:34:22.322Z,99.90
2018-07-19T02:36:51.511Z,99.90
2018-07-19T02:39:20.695Z,99.90
2018-07-19T02:41:49.894Z,99.90
2018-07-19T02:44:19.082Z,99.90
2018-07-19T02:46:48.250Z,99.90
2018-07-19T02:49:17.398Z,99.90
2018-07-19T02:51:46.608Z,99.90
2018-07-19T02:54:15.807Z,99.90
2018-07-19T02:56:44.966Z,99.90
2018-07-19T02:59:14.136Z,99.90
2018-07-19T03:01:43.261Z,99.90
2018-07-19T03:04:12.418Z,99.90
2018-07-19T03:06:41.590Z,99.90
2018-07-19T03:09:10.757Z,99.90
2018-07-19T03:11:39.970Z,99.90
2018-07-19T03:14:09.116Z,99.90
2018-07-19T03:16:38.291Z,99.90
2018-07-19T03:19:07.428Z,99.90
2018-07-19T03:21:36.619Z,99.90
2018-07-19T03:24:06.525Z,99.90
2018-07-19T03:26:35.841Z,99.90
2018-07-19T03:29:05.024Z,99.90
2018-07-19T03:31:34.186Z,99.90
2018-07-19T03:34:03.337Z,99.90
2018-07-19T03:36:32.542Z,99.90
2018-07-19T03:39:01.681Z,99.90
2018-07-19T03:41:30.817Z,99.90
2018-07-19T03:44:00.027Z,99.90
2018-07-19T03:46:29.176Z,99.90
2018-07-19T03:48:58.336Z,99.90
2018-07-19T03:51:27.496Z,99.90
2018-07-19T03:53:56.648Z,99.90
2018-07-19T03:56:25.789Z,99.90
2018-07-19T03:58:54.968Z,99.90
2018-07-19T04:01:24.157Z,99.90
2018-07-19T04:03:53.342Z,99.90
2018-07-19T04:06:22.490Z,99.90
2018-07-19T04:08:51.681Z,99.90
2018-07-19T04:11:20.828Z,99.90
2018-07-19T04:13:50.009Z,99.90
2018-07-19T04:16:19.245Z,99.90
2018-07-19T04:18:48.438Z,99.90
2018-07-19T04:21:17.582Z,99.90
2018-07-19T04:23:46.728Z,99.90
2018-07-19T04:26:16.160Z,99.90
2018-07-19T04:28:45.331Z,99.90
2018-07-19T04:31:14.469Z,99.90
2018-07-19T04:33:43.668Z,99.90
2018-07-19T04:36:12.795Z,99.90
2018-07-19T04:38:42.651Z,99.90
2018-07-19T04:41:11.836Z,99.90
2018-07-19T04:43:41.002Z,99.90
2018-07-19T04:46:10.147Z,99.90
2018-07-19T04:48:39.278Z,99.90
2018-07-19T04:51:08.478Z,99.90
2018-07-19T04:53:37.635Z,99.90
2018-07-19T04:56:06.836Z,99.90
2018-07-19T04:58:36.021Z,99.90
2018-07-19T05:03:33.989Z,99.90
2018-07-19T05:06:03.169Z,99.90
2018-07-19T05:08:32.353Z,99.90
2018-07-19T05:11:01.775Z,99.90
2018-07-19T05:13:30.987Z,99.90
2018-07-19T05:16:00.121Z,99.90
2018-07-19T05:18:29.845Z,99.90
2018-07-19T05:20:59.078Z,99.90
2018-07-19T05:23:28.437Z,99.90
2018-07-19T05:25:57.597Z,99.90
2018-07-19T05:28:26.743Z,99.90
2018-07-19T05:30:55.933Z,99.90
2018-07-19T05:33:25.084Z,99.90
2018-07-19T05:35:54.230Z,99.90
2018-07-19T05:38:23.377Z,99.90
2018-07-19T05:40:52.693Z,99.90
2018-07-19T05:43:21.866Z,99.90
2018-07-19T05:45:51.032Z,99.90
2018-07-19T05:48:20.263Z,99.90
2018-07-19T05:50:49.478Z,99.90
2018-07-19T05:53:18.730Z,99.90
2018-07-19T05:55:47.940Z,99.90
2018-07-19T05:58:17.134Z,99.90
2018-07-19T06:00:46.366Z,99.90
2018-07-19T06:03:15.532Z,99.90
2018-07-19T06:05:44.868Z,99.90
2018-07-19T06:08:14.041Z,99.90
2018-07-19T06:10:49.518Z,99.90
2018-07-19T06:13:18.667Z,99.90
2018-07-19T06:15:47.838Z,99.90
2018-07-19T06:18:17.021Z,99.90
2018-07-19T06:23:14.941Z,99.90
2018-07-19T06:25:44.153Z,99.90
2018-07-19T06:28:13.340Z,99.90
2018-07-19T06:30:42.628Z,99.90
2018-07-19T06:33:11.783Z,99.90
2018-07-19T06:35:40.989Z,99.90
2018-07-19T06:38:10.173Z,98.80
2018-07-19T06:40:39.399Z,98.00
2018-07-19T06:43:08.556Z,97.90
2018-07-19T06:45:37.743Z,94.80
2018-07-19T06:48:06.892Z,93.40
2018-07-19T06:50:36.607Z,93.90
2018-07-19T06:53:06.333Z,94.20
2018-07-19T06:55:36.164Z,93.30
2018-07-19T06:58:05.649Z,93.10
2018-07-19T07:00:34.855Z,93.20
2018-07-19T07:03:04.049Z,93.80
2018-07-19T07:05:33.214Z,93.10
2018-07-19T07:08:04.428Z,93.20
2018-07-19T07:10:33.611Z,93.50
2018-07-19T07:13:02.850Z,90.30
2018-07-19T07:15:31.982Z,92.10
2018-07-19T07:18:01.131Z,90.50
2018-07-19T07:20:30.297Z,90.20
2018-07-19T07:22:59.483Z,88.70
2018-07-19T07:25:34.182Z,90.30
2018-07-19T07:28:03.353Z,86.10
2018-07-19T07:30:32.530Z,82.90
2018-07-19T07:33:01.736Z,83.20
2018-07-19T07:35:30.942Z,80.70
2018-07-19T07:38:00.137Z,83.20
2018-07-19T07:40:29.296Z,85.10
2018-07-19T07:45:28.541Z,84.80
2018-07-19T07:47:57.799Z,84.20
2018-07-19T07:50:26.970Z,83.50
2018-07-19T07:52:56.130Z,82.30
2018-07-19T07:55:25.323Z,85.90
2018-07-19T07:57:54.557Z,83.90
2018-07-19T08:00:23.760Z,82.10
2018-07-19T08:02:52.926Z,78.70
2018-07-19T08:05:22.654Z,80.00
2018-07-19T08:07:51.847Z,78.70
2018-07-19T08:10:21.035Z,79.00
2018-07-19T08:12:50.212Z,77.90
2018-07-19T08:15:19.456Z,77.50
2018-07-19T08:17:48.663Z,74.60
2018-07-19T08:20:17.832Z,71.70
2018-07-19T08:22:47.034Z,74.60
2018-07-19T08:25:16.228Z,68.90
2018-07-19T08:27:45.392Z,73.90
2018-07-19T08:30:14.630Z,72.20
2018-07-19T08:32:43.870Z,66.70
2018-07-19T08:35:13.020Z,68.30
2018-07-19T08:37:42.174Z,64.90
2018-07-19T08:40:11.429Z,68.10
2018-07-19T08:42:40.563Z,66.80
2018-07-19T08:45:09.714Z,66.80
2018-07-19T08:47:38.860Z,66.10
2018-07-19T08:50:07.998Z,65.10
2018-07-19T08:52:37.140Z,66.80
2018-07-19T08:55:06.297Z,64.40
2018-07-19T08:57:35.461Z,63.20
2018-07-19T09:00:04.962Z,62.40
2018-07-19T09:02:34.161Z,61.00
2018-07-19T09:05:03.404Z,59.60
2018-07-19T09:07:32.600Z,63.30
2018-07-19T09:10:01.754Z,59.30
2018-07-19T09:12:30.932Z,59.20
2018-07-19T09:15:00.080Z,59.90
2018-07-19T09:17:29.213Z,58.30
2018-07-19T09:19:58.424Z,59.10
2018-07-19T09:22:27.540Z,59.80
2018-07-19T09:24:56.718Z,62.40
2018-07-19T09:27:25.861Z,57.90
2018-07-19T09:29:55.062Z,56.60
2018-07-19T09:32:24.224Z,56.80
2018-07-19T09:34:53.389Z,54.90
2018-07-19T09:37:22.562Z,57.90
2018-07-19T09:39:51.789Z,61.30
2018-07-19T09:42:20.969Z,61.00
2018-07-19T09:44:50.113Z,59.40
2018-07-19T09:47:19.294Z,58.80
2018-07-19T09:49:48.637Z,55.30
2018-07-19T09:52:17.773Z,57.10
2018-07-19T09:54:58.492Z,60.60
2018-07-19T09:57:28.657Z,60.40
2018-07-19T09:59:57.878Z,61.30
2018-07-19T10:02:27.045Z,60.10
2018-07-19T10:04:56.361Z,60.20
2018-07-19T10:07:25.502Z,61.40
2018-07-19T10:09:54.663Z,61.80
2018-07-19T10:12:23.786Z,60.10
2018-07-19T10:14:52.976Z,58.90
2018-07-19T10:17:22.137Z,59.50
2018-07-19T10:19:51.283Z,57.50
2018-07-19T10:22:20.430Z,55.50
2018-07-19T10:24:49.670Z,55.70
2018-07-19T10:27:18.830Z,56.10
2018-07-19T10:29:48.005Z,57.00
2018-07-19T10:32:17.293Z,58.30
2018-07-19T10:34:46.366Z,56.40
2018-07-19T10:37:15.503Z,57.60
2018-07-19T10:39:44.742Z,56.10
2018-07-19T10:44:42.637Z,56.00
2018-07-19T10:47:11.778Z,55.50
2018-07-19T10:49:40.954Z,54.90
2018-07-19T10:52:10.073Z,55.00
2018-07-19T10:54:39.244Z,55.00
2018-07-19T10:57:08.386Z,54.60
2018-07-19T10:59:37.635Z,51.60
2018-07-19T11:02:06.853Z,52.20
2018-07-19T11:04:36.061Z,51.20
2018-07-19T11:07:05.269Z,48.00
2018-07-19T11:09:34.456Z,50.20
2018-07-19T11:12:03.782Z,50.30
2018-07-19T11:14:32.957Z,52.00
2018-07-19T11:17:02.127Z,49.30
2018-07-19T11:19:31.358Z,47.70
2018-07-19T11:22:00.549Z,47.00
2018-07-19T11:24:29.709Z,49.00
2018-07-19T11:26:58.870Z,47.30
2018-07-19T11:29:27.981Z,46.30
2018-07-19T11:31:57.149Z,45.80
2018-07-19T11:34:26.336Z,45.90
2018-07-19T11:36:55.490Z,45.90
2018-07-19T11:39:24.685Z,47.00
2018-07-19T11:41:53.840Z,48.60
2018-07-19T11:44:22.984Z,46.40
2018-07-19T11:46:52.197Z,48.50
2018-07-19T11:49:23.005Z,50.90
2018-07-19T11:51:52.178Z,52.50
2018-07-19T11:54:21.322Z,54.50
2018-07-19T11:56:51.273Z,55.90
2018-07-19T11:59:23.252Z,56.40
2018-07-19T12:01:53.221Z,55.50
2018-07-19T12:04:23.122Z,54.80
2018-07-19T12:06:53.009Z,51.10
2018-07-19T12:09:22.849Z,47.30
2018-07-19T12:11:52.730Z,48.90
2018-07-19T12:14:22.713Z,46.80
2018-07-19T12:16:52.657Z,45.70
2018-07-19T12:19:22.642Z,46.20
2018-07-19T12:21:52.550Z,43.20
2018-07-19T12:24:22.437Z,46.70
2018-07-19T12:26:52.757Z,45.10
2018-07-19T12:29:22.948Z,43.00
2018-07-19T12:31:52.846Z,42.10
2018-07-19T12:34:22.936Z,43.70
2018-07-19T12:36:52.320Z,44.90
2018-07-19T12:39:21.603Z,44.90
2018-07-19T12:41:51.063Z,46.40
2018-07-19T12:44:20.951Z,42.90
2018-07-19T12:46:50.703Z,43.90
2018-07-19T12:49:20.103Z,46.10
2018-07-19T12:51:49.221Z,41.90
2018-07-19T12:54:19.321Z,43.10
2018-07-19T12:59:18.355Z,43.60
2018-07-19T13:01:47.681Z,42.90
2018-07-19T13:04:16.824Z,44.50
2018-07-19T13:06:45.968Z,42.50
2018-07-19T13:09:15.092Z,42.60
2018-07-19T13:11:44.381Z,43.40
2018-07-19T13:14:13.579Z,43.50
2018-07-19T13:16:42.933Z,44.00
2018-07-19T13:19:12.412Z,45.40
2018-07-19T13:21:41.921Z,45.20
2018-07-19T13:24:11.480Z,44.80
2018-07-19T13:26:41.046Z,44.40
2018-07-19T13:29:10.226Z,46.10
2018-07-19T13:31:39.374Z,44.60
2018-07-19T13:34:08.857Z,42.70
2018-07-19T13:36:38.373Z,43.20
2018-07-19T13:39:08.849Z,46.40
2018-07-19T13:41:38.129Z,45.60
2018-07-19T13:44:07.499Z,46.00
2018-07-19T13:49:06.468Z,44.60
2018-07-19T13:51:35.644Z,45.10
2018-07-19T13:55:15.453Z,43.10
2018-07-19T13:57:44.594Z,43.60
2018-07-19T14:00:13.941Z,44.20
2018-07-19T14:02:43.131Z,44.90
2018-07-19T14:05:12.266Z,41.60
2018-07-19T14:07:41.394Z,42.00
2018-07-19T14:10:10.530Z,41.80
2018-07-19T14:12:39.660Z,43.80
2018-07-19T14:15:08.781Z,42.80
2018-07-19T14:17:37.932Z,43.20
2018-07-19T14:20:07.563Z,42.20
2018-07-19T14:22:36.721Z,42.50
2018-07-19T14:25:05.990Z,43.50
2018-07-19T14:27:35.162Z,42.90
2018-07-19T14:30:05.828Z,45.40
2018-07-19T14:32:34.973Z,44.00
2018-07-19T14:35:04.717Z,43.70
2018-07-19T14:37:33.992Z,43.30
2018-07-19T14:40:03.158Z,42.80
2018-07-19T14:42:32.552Z,44.10
2018-07-19T14:45:02.148Z,43.70
2018-07-19T14:47:31.628Z,42.60
2018-07-19T14:50:00.823Z,41.60
2018-07-19T14:52:30.090Z,41.00
2018-07-19T14:57:29.777Z,41.30
2018-07-19T14:59:58.925Z,42.70
2018-07-19T15:02:28.169Z,44.20
2018-07-19T15:04:57.725Z,45.00
2018-07-19T15:07:27.329Z,44.10
2018-07-19T15:09:56.689Z,43.90
2018-07-19T15:12:25.928Z,42.10
2018-07-19T15:14:55.390Z,43.00
2018-07-19T15:17:24.524Z,41.80
2018-07-19T15:19:53.742Z,41.50
2018-07-19T15:22:23.106Z,43.40
2018-07-19T15:24:52.289Z,40.80
2018-07-19T15:27:21.435Z,40.60
2018-07-19T15:29:50.624Z,38.90
2018-07-19T15:32:19.760Z,38.40
2018-07-19T15:34:49.146Z,42.30
2018-07-19T15:37:18.350Z,38.40
2018-07-19T15:39:47.547Z,42.30
2018-07-19T15:42:16.692Z,41.50
2018-07-19T15:44:46.016Z,42.50
2018-07-19T15:47:15.381Z,44.00
2018-07-19T15:49:45.571Z,43.50
2018-07-19T15:52:15.103Z,42.60
2018-07-19T15:54:44.257Z,44.00
2018-07-19T15:57:13.408Z,44.10
2018-07-19T15:59:42.836Z,43.10
2018-07-19T16:02:12.041Z,43.30
2018-07-19T16:04:41.246Z,43.80
2018-07-19T16:07:10.386Z,42.40
2018-07-19T16:09:39.537Z,42.20
2018-07-19T16:12:08.739Z,42.00
2018-07-19T16:14:37.861Z,44.60
2018-07-19T16:17:07.768Z,41.80
2018-07-19T16:19:37.104Z,43.60
2018-07-19T16:22:06.711Z,45.30
2018-07-19T16:24:35.877Z,43.60
2018-07-19T16:27:05.036Z,43.50
2018-07-19T16:29:34.274Z,45.60
2018-07-19T16:32:03.614Z,45.00
2018-07-19T16:34:32.781Z,45.00
2018-07-19T16:37:02.060Z,44.90
2018-07-19T16:39:31.386Z,43.90
2018-07-19T16:42:00.534Z,43.80
2018-07-19T16:44:29.682Z,43.30
2018-07-19T16:46:58.876Z,42.80
2018-07-19T16:49:28.626Z,44.80
2018-07-19T16:51:57.981Z,45.40
2018-07-19T16:54:27.118Z,44.40
2018-07-19T16:56:56.336Z,44.90
2018-07-19T16:59:25.554Z,47.80
2018-07-19T17:01:55.167Z,45.40
2018-07-19T17:04:24.284Z,45.00
2018-07-19T17:06:53.466Z,46.70
2018-07-19T17:09:22.654Z,46.90
2018-07-19T17:11:51.790Z,46.50
2018-07-19T17:14:20.923Z,47.30
2018-07-19T17:16:50.068Z,46.60
2018-07-19T17:19:19.318Z,47.10
2018-07-19T17:21:48.453Z,47.00
2018-07-19T17:24:17.621Z,47.50
2018-07-19T17:26:46.757Z,47.10
2018-07-19T17:29:15.850Z,48.00
2018-07-19T17:31:45.027Z,49.70
2018-07-19T17:34:14.161Z,49.20
2018-07-19T17:36:43.300Z,48.00
2018-07-19T17:39:13.094Z,48.50
2018-07-19T17:41:42.727Z,47.40
2018-07-19T17:44:11.889Z,47.00
2018-07-19T17:46:41.053Z,46.90
2018-07-19T17:49:10.248Z,47.00
2018-07-19T17:51:39.406Z,48.70
2018-07-19T17:54:08.561Z,49.50
2018-07-19T17:56:37.755Z,49.90
2018-07-19T17:59:07.005Z,49.30
2018-07-19T18:01:36.190Z,49.60
2018-07-19T18:04:05.329Z,49.80
2018-07-19T18:06:34.469Z,48.50
2018-07-19T18:09:04.089Z,49.90
2018-07-19T18:11:33.230Z,51.90
2018-07-19T18:14:02.362Z,53.80
2018-07-19T18:16:31.602Z,56.20
2018-07-19T18:19:04.227Z,57.00
2018-07-19T18:21:33.392Z,60.10
2018-07-19T18:24:02.553Z,60.80
2018-07-19T18:26:31.764Z,63.80
2018-07-19T18:29:00.949Z,69.10
2018-07-19T18:31:30.222Z,65.30
2018-07-19T18:33:59.359Z,65.30
2018-07-19T18:36:28.579Z,66.00
2018-07-19T18:38:58.365Z,67.20
2018-07-19T18:41:27.629Z,67.90
2018-07-19T18:43:56.792Z,69.40
2018-07-19T18:46:25.933Z,71.30
2018-07-19T18:48:55.153Z,72.40
2018-07-19T18:51:24.376Z,72.80
2018-07-19T18:53:53.529Z,73.40
2018-07-19T18:56:22.810Z,73.60
2018-07-19T18:58:52.726Z,74.00
2018-07-19T19:01:21.942Z,76.40
2018-07-19T19:03:51.745Z,76.60
2018-07-19T19:06:21.217Z,78.30
2018-07-19T19:08:50.393Z,80.20
2018-07-19T19:11:19.613Z,80.10
2018-07-19T19:13:48.928Z,81.60
2018-07-19T19:16:18.638Z,82.10
2018-07-19T19:18:47.823Z,83.10
2018-07-19T19:21:16.961Z,85.20
2018-07-19T19:23:47.042Z,84.90
2018-07-19T19:26:17.255Z,88.40
2018-07-19T19:28:46.617Z,89.60
2018-07-19T19:31:16.374Z,90.80
2018-07-19T19:33:45.570Z,92.00
2018-07-19T19:36:14.751Z,92.60
2018-07-19T19:41:12.737Z,93.10
2018-07-19T19:43:41.997Z,93.60
2018-07-19T19:46:11.239Z,91.90
2018-07-19T19:48:40.551Z,92.00
2018-07-19T19:51:09.714Z,92.60
2018-07-19T19:53:38.852Z,92.00
2018-07-19T19:56:08.008Z,91.70
2018-07-19T19:58:37.839Z,91.40
2018-07-19T20:01:08.063Z,91.10
2018-07-19T20:03:37.233Z,91.80
2018-07-19T20:06:07.835Z,92.10
2018-07-19T20:08:37.011Z,92.80
2018-07-19T20:11:06.314Z,93.20
2018-07-19T20:13:35.566Z,93.80
2018-07-19T20:16:04.967Z,94.60
2018-07-19T20:18:34.453Z,94.30
2018-07-19T20:21:03.641Z,94.80
2018-07-19T20:23:33.398Z,94.70
2018-07-19T20:26:02.601Z,95.10
2018-07-19T20:28:31.833Z,95.40
2018-07-19T20:31:02.013Z,96.30
2018-07-19T20:33:31.165Z,96.80
2018-07-19T20:36:00.312Z,96.80
2018-07-19T20:38:29.559Z,96.50
2018-07-19T20:40:58.990Z,95.10
2018-07-19T20:43:28.729Z,96.30
2018-07-19T20:45:57.857Z,96.40
2018-07-19T20:48:27.620Z,97.10
2018-07-19T20:50:56.798Z,97.50
2018-07-19T20:53:25.961Z,97.40
2018-07-19T20:55:55.134Z,97.60
2018-07-19T20:58:24.386Z,97.80
2018-07-19T21:00:53.545Z,97.40
2018-07-19T21:03:22.683Z,98.40
2018-07-19T21:05:51.844Z,98.30
2018-07-19T21:08:20.995Z,96.90
2018-07-19T21:10:50.168Z,96.20
2018-07-19T21:13:19.260Z,95.60
2018-07-19T21:15:48.401Z,96.00
2018-07-19T21:18:17.615Z,96.00
2018-07-19T21:20:46.803Z,96.00
2018-07-19T21:23:16.030Z,96.00
2018-07-19T21:25:45.780Z,95.50
2018-07-19T21:28:14.898Z,95.30
2018-07-19T21:30:44.175Z,95.90
2018-07-19T21:33:13.369Z,95.40
2018-07-19T21:35:42.565Z,95.50
2018-07-19T21:38:11.761Z,95.90
2018-07-19T21:40:40.918Z,95.90
2018-07-19T21:43:10.165Z,96.60
2018-07-19T21:45:39.285Z,97.40
2018-07-19T21:48:08.445Z,98.10
2018-07-19T21:50:38.147Z,98.30
2018-07-19T21:53:07.277Z,98.10
2018-07-19T21:55:36.432Z,99.70
2018-07-19T21:58:05.770Z,99.90
2018-07-19T22:00:39.289Z,99.90
2018-07-19T22:03:08.452Z,99.90
2018-07-19T22:05:37.614Z,99.90
2018-07-19T22:08:06.749Z,99.90
2018-07-19T22:10:35.861Z,99.90
2018-07-19T22:13:05.009Z,99.90
2018-07-19T22:15:34.117Z,99.80
2018-07-19T22:18:03.382Z,99.30
2018-07-19T22:20:32.557Z,99.10
2018-07-19T22:23:01.685Z,99.20
2018-07-19T22:25:30.816Z,99.90
2018-07-19T22:27:59.969Z,99.90
2018-07-19T22:30:29.103Z,99.90
2018-07-19T22:32:58.300Z,99.90
2018-07-19T22:35:27.426Z,99.90
2018-07-19T22:37:57.594Z,99.90
2018-07-19T22:40:26.741Z,99.90
2018-07-19T22:42:55.885Z,99.90
2018-07-19T22:45:25.022Z,99.90
2018-07-19T22:47:54.262Z,99.90
2018-07-19T22:50:23.513Z,99.90
2018-07-19T22:52:52.680Z,99.90
2018-07-19T22:55:21.822Z,99.90
2018-07-19T22:57:51.113Z,99.90
2018-07-19T23:00:20.290Z,99.90
2018-07-19T23:02:49.434Z,99.90
2018-07-19T23:05:18.536Z,99.90
2018-07-19T23:07:47.705Z,99.90
2018-07-19T23:10:16.805Z,99.90
2018-07-19T23:12:45.946Z,99.90
2018-07-19T23:15:15.070Z,99.90
2018-07-19T23:17:44.261Z,99.90
2018-07-19T23:20:13.414Z,99.90
2018-07-19T23:22:44.117Z,99.90
2018-07-19T23:25:13.230Z,99.90
2018-07-19T23:27:42.421Z,99.90
2018-07-19T23:30:11.610Z,99.90
2018-07-19T23:32:40.837Z,99.90
2018-07-19T23:35:09.997Z,99.90
2018-07-19T23:37:40.892Z,99.90
2018-07-19T23:40:25.417Z,99.90
2018-07-19T23:42:58.839Z,99.90
2018-07-19T23:45:37.248Z,99.90
2018-07-19T23:48:06.487Z,99.90
2018-07-19T23:50:35.610Z,99.90
2018-07-19T23:53:04.770Z,99.90
2018-07-19T23:55:33.886Z,99.90
2018-07-19T23:58:03.466Z,99.90
